sensor_id;sensor_type;location;lat;lon;timestamp;pressure;altitude;pressure_sealevel;temperature;humidity
13869;BME280;7004;48.206;16.402;2023-12-28T00:01:39;100166.38;;;5.55;91.18
13869;BME280;7004;48.206;16.402;2023-12-28T00:04:05;100163.28;;;5.43;92.25
13869;BME280;7004;48.206;16.402;2023-12-28T00:06:32;100173.19;;;5.35;92.54
13869;BME280;7004;48.206;16.402;2023-12-28T00:08:58;100165.25;;;5.37;92.54
13869;BME280;7004;48.206;16.402;2023-12-28T00:11:26;100164.78;;;5.25;91.44
13869;BME280;7004;48.206;16.402;2023-12-28T00:13:52;100170.19;;;5.46;91.54
13869;BME280;7004;48.206;16.402;2023-12-28T00:16:19;100170.97;;;5.23;91.74
13869;BME280;7004;48.206;16.402;2023-12-28T00:18:46;100169.38;;;5.19;92.39
13869;BME280;7004;48.206;16.402;2023-12-28T00:21:16;100171.63;;;5.30;92.68
13869;BME280;7004;48.206;16.402;2023-12-28T00:23:42;100166.59;;;5.23;92.55
13869;BME280;7004;48.206;16.402;2023-12-28T00:26:08;100172.38;;;5.33;92.74
13869;BME280;7004;48.206;16.402;2023-12-28T00:28:34;100183.22;;;5.22;92.42
13869;BME280;7004;48.206;16.402;2023-12-28T00:31:00;100179.81;;;5.20;92.83
13869;BME280;7004;48.206;16.402;2023-12-28T00:33:26;100191.25;;;5.18;93.88
13869;BME280;7004;48.206;16.402;2023-12-28T00:35:52;100180.50;;;5.25;93.34
13869;BME280;7004;48.206;16.402;2023-12-28T00:38:18;100187.63;;;4.69;92.96
13869;BME280;7004;48.206;16.402;2023-12-28T00:40:45;100188.44;;;4.71;93.96
13869;BME280;7004;48.206;16.402;2023-12-28T00:43:11;100186.31;;;4.82;93.35
13869;BME280;7004;48.206;16.402;2023-12-28T00:45:39;100183.09;;;5.00;93.48
13869;BME280;7004;48.206;16.402;2023-12-28T00:48:06;100188.13;;;5.07;93.18
13869;BME280;7004;48.206;16.402;2023-12-28T00:50:32;100189.69;;;5.12;92.93
13869;BME280;7004;48.206;16.402;2023-12-28T00:52:59;100189.31;;;5.23;92.11
13869;BME280;7004;48.206;16.402;2023-12-28T00:55:25;100184.53;;;5.36;91.72
13869;BME280;7004;48.206;16.402;2023-12-28T00:57:51;100182.59;;;5.41;91.35
13869;BME280;7004;48.206;16.402;2023-12-28T01:00:18;100171.72;;;5.52;91.60
13869;BME280;7004;48.206;16.402;2023-12-28T01:02:44;100175.31;;;5.49;91.17
13869;BME280;7004;48.206;16.402;2023-12-28T01:05:13;100177.56;;;5.35;91.77
13869;BME280;7004;48.206;16.402;2023-12-28T01:07:40;100173.97;;;5.12;91.22
13869;BME280;7004;48.206;16.402;2023-12-28T01:10:07;100172.09;;;5.16;91.77
13869;BME280;7004;48.206;16.402;2023-12-28T01:12:33;100176.44;;;5.17;91.35
13869;BME280;7004;48.206;16.402;2023-12-28T01:14:59;100174.25;;;5.03;92.02
13869;BME280;7004;48.206;16.402;2023-12-28T01:17:25;100175.16;;;5.03;92.41
13869;BME280;7004;48.206;16.402;2023-12-28T01:19:51;100177.00;;;5.00;92.02
13869;BME280;7004;48.206;16.402;2023-12-28T01:22:17;100183.84;;;5.04;92.40
13869;BME280;7004;48.206;16.402;2023-12-28T01:24:46;100183.59;;;5.12;93.16
13869;BME280;7004;48.206;16.402;2023-12-28T01:27:15;100179.59;;;5.26;92.22
13869;BME280;7004;48.206;16.402;2023-12-28T01:29:42;100177.72;;;5.30;93.24
13869;BME280;7004;48.206;16.402;2023-12-28T01:32:08;100178.44;;;5.35;92.28
13869;BME280;7004;48.206;16.402;2023-12-28T01:34:34;100176.09;;;5.53;92.47
13869;BME280;7004;48.206;16.402;2023-12-28T01:37:02;100173.91;;;5.64;92.19
13869;BME280;7004;48.206;16.402;2023-12-28T01:39:29;100173.13;;;5.62;93.07
13869;BME280;7004;48.206;16.402;2023-12-28T01:41:55;100171.75;;;5.75;93.22
13869;BME280;7004;48.206;16.402;2023-12-28T01:44:21;100169.78;;;5.82;92.70
13869;BME280;7004;48.206;16.402;2023-12-28T01:46:47;100161.53;;;5.67;92.46
13869;BME280;7004;48.206;16.402;2023-12-28T01:49:13;100166.22;;;5.83;93.79
13869;BME280;7004;48.206;16.402;2023-12-28T01:51:40;100171.44;;;5.84;92.72
13869;BME280;7004;48.206;16.402;2023-12-28T01:54:07;100173.00;;;5.65;92.33
13869;BME280;7004;48.206;16.402;2023-12-28T01:56:34;100162.06;;;5.77;93.53
13869;BME280;7004;48.206;16.402;2023-12-28T01:59:01;100156.25;;;5.93;93.10
13869;BME280;7004;48.206;16.402;2023-12-28T02:01:27;100154.06;;;5.80;93.38
13869;BME280;7004;48.206;16.402;2023-12-28T02:03:54;100153.38;;;5.75;94.67
13869;BME280;7004;48.206;16.402;2023-12-28T02:06:23;100156.16;;;5.70;94.54
13869;BME280;7004;48.206;16.402;2023-12-28T02:08:50;100150.38;;;5.86;94.47
13869;BME280;7004;48.206;16.402;2023-12-28T02:11:16;100149.34;;;5.90;93.72
13869;BME280;7004;48.206;16.402;2023-12-28T02:13:44;100139.09;;;5.84;94.04
13869;BME280;7004;48.206;16.402;2023-12-28T02:16:20;100134.69;;;5.84;94.13
13869;BME280;7004;48.206;16.402;2023-12-28T02:18:52;100128.91;;;6.00;94.28
13869;BME280;7004;48.206;16.402;2023-12-28T02:21:20;100141.13;;;5.76;94.31
13869;BME280;7004;48.206;16.402;2023-12-28T02:23:48;100129.78;;;5.75;95.49
13869;BME280;7004;48.206;16.402;2023-12-28T02:26:16;100122.59;;;5.57;99.80
13869;BME280;7004;48.206;16.402;2023-12-28T02:28:44;100120.13;;;5.76;98.80
13869;BME280;7004;48.206;16.402;2023-12-28T02:31:20;100122.44;;;6.08;98.73
13869;BME280;7004;48.206;16.402;2023-12-28T02:34:09;100118.63;;;5.94;99.82
13869;BME280;7004;48.206;16.402;2023-12-28T02:36:38;100122.31;;;6.11;98.11
13869;BME280;7004;48.206;16.402;2023-12-28T02:39:08;100121.22;;;5.70;99.32
13869;BME280;7004;48.206;16.402;2023-12-28T02:41:36;100112.88;;;5.84;99.85
13869;BME280;7004;48.206;16.402;2023-12-28T02:44:03;100118.72;;;6.14;99.72
13869;BME280;7004;48.206;16.402;2023-12-28T02:46:29;100122.09;;;6.18;99.33
13869;BME280;7004;48.206;16.402;2023-12-28T02:48:55;100119.47;;;6.18;100.00
13869;BME280;7004;48.206;16.402;2023-12-28T02:51:26;100124.25;;;5.83;100.00
13869;BME280;7004;48.206;16.402;2023-12-28T02:53:52;100125.06;;;5.36;100.00
13869;BME280;7004;48.206;16.402;2023-12-28T02:56:18;100116.06;;;5.68;100.00
13869;BME280;7004;48.206;16.402;2023-12-28T02:58:44;100116.34;;;5.84;100.00
13869;BME280;7004;48.206;16.402;2023-12-28T03:01:11;100117.75;;;5.93;100.00
13869;BME280;7004;48.206;16.402;2023-12-28T03:03:37;100125.34;;;5.54;100.00
13869;BME280;7004;48.206;16.402;2023-12-28T03:06:03;100120.00;;;6.04;100.00
13869;BME280;7004;48.206;16.402;2023-12-28T03:08:31;100119.81;;;6.08;100.00
13869;BME280;7004;48.206;16.402;2023-12-28T03:10:57;100127.38;;;5.93;100.00
13869;BME280;7004;48.206;16.402;2023-12-28T03:13:24;100122.47;;;6.30;100.00
13869;BME280;7004;48.206;16.402;2023-12-28T03:15:50;100134.03;;;6.25;100.00
13869;BME280;7004;48.206;16.402;2023-12-28T03:18:16;100134.63;;;6.33;100.00
13869;BME280;7004;48.206;16.402;2023-12-28T03:20:42;100134.97;;;6.46;100.00
13869;BME280;7004;48.206;16.402;2023-12-28T03:23:08;100134.50;;;6.36;100.00
13869;BME280;7004;48.206;16.402;2023-12-28T03:25:37;100131.53;;;6.66;99.63
13869;BME280;7004;48.206;16.402;2023-12-28T03:28:03;100136.81;;;6.66;99.51
13869;BME280;7004;48.206;16.402;2023-12-28T03:30:29;100132.34;;;6.46;100.00
13869;BME280;7004;48.206;16.402;2023-12-28T03:32:56;100140.03;;;6.50;100.00
13869;BME280;7004;48.206;16.402;2023-12-28T03:35:21;100136.44;;;6.31;100.00
13869;BME280;7004;48.206;16.402;2023-12-28T03:37:48;100147.56;;;6.38;100.00
13869;BME280;7004;48.206;16.402;2023-12-28T03:40:15;100144.75;;;6.20;100.00
13869;BME280;7004;48.206;16.402;2023-12-28T03:42:43;100148.06;;;6.47;100.00
13869;BME280;7004;48.206;16.402;2023-12-28T03:45:10;100150.06;;;6.63;100.00
13869;BME280;7004;48.206;16.402;2023-12-28T03:47:37;100153.44;;;6.44;99.74
13869;BME280;7004;48.206;16.402;2023-12-28T03:50:04;100143.88;;;6.64;99.05
13869;BME280;7004;48.206;16.402;2023-12-28T03:52:31;100133.94;;;6.50;99.54
13869;BME280;7004;48.206;16.402;2023-12-28T03:54:58;100133.88;;;6.73;99.20
13869;BME280;7004;48.206;16.402;2023-12-28T03:57:25;100139.59;;;6.61;100.00
13869;BME280;7004;48.206;16.402;2023-12-28T03:59:51;100131.19;;;6.31;100.00
13869;BME280;7004;48.206;16.402;2023-12-28T04:02:19;100124.78;;;6.38;100.00
13869;BME280;7004;48.206;16.402;2023-12-28T04:04:45;100136.75;;;6.45;100.00
13869;BME280;7004;48.206;16.402;2023-12-28T04:07:13;100138.16;;;6.54;100.00
13869;BME280;7004;48.206;16.402;2023-12-28T04:09:39;100140.59;;;6.59;100.00
13869;BME280;7004;48.206;16.402;2023-12-28T04:12:05;100137.91;;;6.16;100.00
13869;BME280;7004;48.206;16.402;2023-12-28T04:14:31;100153.97;;;6.07;100.00
13869;BME280;7004;48.206;16.402;2023-12-28T04:16:57;100146.78;;;6.36;100.00
13869;BME280;7004;48.206;16.402;2023-12-28T04:19:23;100158.56;;;6.47;100.00
13869;BME280;7004;48.206;16.402;2023-12-28T04:21:49;100159.03;;;6.35;100.00
13869;BME280;7004;48.206;16.402;2023-12-28T04:24:15;100156.03;;;6.66;98.79
13869;BME280;7004;48.206;16.402;2023-12-28T04:26:41;100162.09;;;6.46;99.41
13869;BME280;7004;48.206;16.402;2023-12-28T04:29:07;100164.72;;;6.68;98.82
13869;BME280;7004;48.206;16.402;2023-12-28T04:31:33;100158.38;;;6.52;98.77
13869;BME280;7004;48.206;16.402;2023-12-28T04:33:59;100167.53;;;6.64;99.38
13869;BME280;7004;48.206;16.402;2023-12-28T04:36:26;100161.22;;;6.46;99.11
13869;BME280;7004;48.206;16.402;2023-12-28T04:38:52;100166.59;;;6.43;98.34
13869;BME280;7004;48.206;16.402;2023-12-28T04:41:18;100173.28;;;6.73;98.17
13869;BME280;7004;48.206;16.402;2023-12-28T04:43:45;100177.97;;;6.65;98.33
13869;BME280;7004;48.206;16.402;2023-12-28T04:46:11;100184.38;;;6.36;100.00
13869;BME280;7004;48.206;16.402;2023-12-28T04:48:37;100180.75;;;6.62;100.00
13869;BME280;7004;48.206;16.402;2023-12-28T04:51:03;100199.91;;;6.86;98.17
13869;BME280;7004;48.206;16.402;2023-12-28T04:53:30;100199.19;;;6.61;99.13
13869;BME280;7004;48.206;16.402;2023-12-28T04:55:56;100197.91;;;6.49;98.64
13869;BME280;7004;48.206;16.402;2023-12-28T04:58:22;100198.38;;;6.37;100.00
13869;BME280;7004;48.206;16.402;2023-12-28T05:00:48;100198.88;;;6.68;99.59
13869;BME280;7004;48.206;16.402;2023-12-28T05:03:15;100189.81;;;6.31;99.55
13869;BME280;7004;48.206;16.402;2023-12-28T05:05:42;100197.31;;;6.41;100.00
13869;BME280;7004;48.206;16.402;2023-12-28T05:08:08;100202.69;;;6.38;100.00
13869;BME280;7004;48.206;16.402;2023-12-28T05:10:34;100198.31;;;6.15;100.00
13869;BME280;7004;48.206;16.402;2023-12-28T05:13:00;100209.84;;;6.10;100.00
13869;BME280;7004;48.206;16.402;2023-12-28T05:15:26;100202.38;;;6.23;100.00
13869;BME280;7004;48.206;16.402;2023-12-28T05:17:52;100207.16;;;6.36;100.00
13869;BME280;7004;48.206;16.402;2023-12-28T05:20:18;100210.03;;;6.06;100.00
13869;BME280;7004;48.206;16.402;2023-12-28T05:22:44;100202.16;;;6.06;100.00
13869;BME280;7004;48.206;16.402;2023-12-28T05:25:10;100196.16;;;6.02;100.00
13869;BME280;7004;48.206;16.402;2023-12-28T05:27:36;100202.03;;;6.09;100.00
13869;BME280;7004;48.206;16.402;2023-12-28T05:30:03;100202.84;;;5.86;100.00
13869;BME280;7004;48.206;16.402;2023-12-28T05:32:29;100201.19;;;6.08;100.00
13869;BME280;7004;48.206;16.402;2023-12-28T05:34:55;100202.31;;;6.25;100.00
13869;BME280;7004;48.206;16.402;2023-12-28T05:37:21;100204.59;;;6.56;99.91
13869;BME280;7004;48.206;16.402;2023-12-28T05:39:47;100188.69;;;6.15;100.00
13869;BME280;7004;48.206;16.402;2023-12-28T05:42:14;100196.63;;;6.13;100.00
13869;BME280;7004;48.206;16.402;2023-12-28T05:44:40;100194.41;;;6.03;100.00
13869;BME280;7004;48.206;16.402;2023-12-28T05:47:06;100214.13;;;6.13;100.00
13869;BME280;7004;48.206;16.402;2023-12-28T05:49:32;100207.56;;;6.01;100.00
13869;BME280;7004;48.206;16.402;2023-12-28T05:51:59;100206.44;;;6.08;100.00
13869;BME280;7004;48.206;16.402;2023-12-28T05:54:25;100221.97;;;5.89;100.00
13869;BME280;7004;48.206;16.402;2023-12-28T05:56:52;100208.88;;;6.13;100.00
13869;BME280;7004;48.206;16.402;2023-12-28T05:59:18;100214.63;;;5.99;100.00
13869;BME280;7004;48.206;16.402;2023-12-28T06:01:44;100219.50;;;5.85;100.00
13869;BME280;7004;48.206;16.402;2023-12-28T06:04:10;100217.25;;;5.99;100.00
13869;BME280;7004;48.206;16.402;2023-12-28T06:06:37;100219.25;;;6.40;100.00
13869;BME280;7004;48.206;16.402;2023-12-28T06:09:03;100218.25;;;5.97;100.00
13869;BME280;7004;48.206;16.402;2023-12-28T06:11:30;100225.44;;;6.39;100.00
13869;BME280;7004;48.206;16.402;2023-12-28T06:13:56;100236.06;;;6.36;100.00
13869;BME280;7004;48.206;16.402;2023-12-28T06:16:22;100230.69;;;6.15;100.00
13869;BME280;7004;48.206;16.402;2023-12-28T06:18:49;100235.47;;;6.27;100.00
13869;BME280;7004;48.206;16.402;2023-12-28T06:21:15;100219.63;;;6.30;100.00
13869;BME280;7004;48.206;16.402;2023-12-28T06:23:42;100221.94;;;6.15;100.00
13869;BME280;7004;48.206;16.402;2023-12-28T06:26:08;100219.88;;;6.46;99.66
13869;BME280;7004;48.206;16.402;2023-12-28T06:28:34;100223.19;;;6.04;100.00
13869;BME280;7004;48.206;16.402;2023-12-28T06:31:00;100229.78;;;6.16;100.00
13869;BME280;7004;48.206;16.402;2023-12-28T06:33:27;100224.78;;;6.32;100.00
13869;BME280;7004;48.206;16.402;2023-12-28T06:35:54;100227.94;;;6.42;99.42
13869;BME280;7004;48.206;16.402;2023-12-28T06:38:21;100226.06;;;6.22;99.96
13869;BME280;7004;48.206;16.402;2023-12-28T06:40:47;100237.59;;;6.41;98.76
13869;BME280;7004;48.206;16.402;2023-12-28T06:43:13;100241.78;;;6.45;98.59
13869;BME280;7004;48.206;16.402;2023-12-28T06:45:40;100238.69;;;6.36;98.02
13869;BME280;7004;48.206;16.402;2023-12-28T06:48:06;100245.75;;;6.33;99.07
13869;BME280;7004;48.206;16.402;2023-12-28T06:50:32;100237.81;;;6.35;98.39
13869;BME280;7004;48.206;16.402;2023-12-28T06:52:58;100244.53;;;6.42;98.21
13869;BME280;7004;48.206;16.402;2023-12-28T06:55:24;100238.31;;;6.45;97.42
13869;BME280;7004;48.206;16.402;2023-12-28T06:57:50;100243.94;;;6.36;98.17
13869;BME280;7004;48.206;16.402;2023-12-28T07:00:17;100253.47;;;5.89;99.98
13869;BME280;7004;48.206;16.402;2023-12-28T07:02:43;100243.00;;;6.13;99.47
13869;BME280;7004;48.206;16.402;2023-12-28T07:05:09;100235.81;;;6.42;99.37
13869;BME280;7004;48.206;16.402;2023-12-28T07:07:38;100255.38;;;6.09;98.86
13869;BME280;7004;48.206;16.402;2023-12-28T07:10:05;100250.72;;;6.18;97.99
13869;BME280;7004;48.206;16.402;2023-12-28T07:12:32;100251.88;;;6.56;97.03
13869;BME280;7004;48.206;16.402;2023-12-28T07:14:58;100249.22;;;6.34;97.69
13869;BME280;7004;48.206;16.402;2023-12-28T07:17:24;100251.44;;;6.45;97.95
13869;BME280;7004;48.206;16.402;2023-12-28T07:19:50;100255.78;;;6.22;98.41
13869;BME280;7004;48.206;16.402;2023-12-28T07:22:16;100255.69;;;6.49;98.21
13869;BME280;7004;48.206;16.402;2023-12-28T07:24:43;100256.84;;;6.64;97.24
13869;BME280;7004;48.206;16.402;2023-12-28T07:27:09;100252.00;;;6.53;97.34
13869;BME280;7004;48.206;16.402;2023-12-28T07:29:35;100252.78;;;6.33;96.69
13869;BME280;7004;48.206;16.402;2023-12-28T07:32:02;100254.59;;;6.31;96.30
13869;BME280;7004;48.206;16.402;2023-12-28T07:34:28;100267.72;;;6.54;96.07
13869;BME280;7004;48.206;16.402;2023-12-28T07:36:54;100262.38;;;6.56;95.23
13869;BME280;7004;48.206;16.402;2023-12-28T07:39:20;100259.53;;;6.62;94.20
13869;BME280;7004;48.206;16.402;2023-12-28T07:41:46;100259.69;;;6.36;96.73
13869;BME280;7004;48.206;16.402;2023-12-28T07:44:12;100260.06;;;6.25;96.37
13869;BME280;7004;48.206;16.402;2023-12-28T07:46:38;100269.00;;;6.66;96.09
13869;BME280;7004;48.206;16.402;2023-12-28T07:49:04;100267.16;;;6.46;95.80
13869;BME280;7004;48.206;16.402;2023-12-28T07:51:30;100258.06;;;6.77;95.40
13869;BME280;7004;48.206;16.402;2023-12-28T07:53:56;100263.44;;;6.52;95.57
13869;BME280;7004;48.206;16.402;2023-12-28T07:56:23;100258.94;;;6.99;94.24
13869;BME280;7004;48.206;16.402;2023-12-28T07:58:49;100253.16;;;6.46;96.09
13869;BME280;7004;48.206;16.402;2023-12-28T08:01:15;100256.97;;;6.61;95.43
13869;BME280;7004;48.206;16.402;2023-12-28T08:03:42;100257.09;;;6.34;97.92
13869;BME280;7004;48.206;16.402;2023-12-28T08:06:08;100255.97;;;6.18;98.38
13869;BME280;7004;48.206;16.402;2023-12-28T08:08:34;100265.84;;;6.34;97.61
13869;BME280;7004;48.206;16.402;2023-12-28T08:11:00;100264.94;;;6.36;98.92
13869;BME280;7004;48.206;16.402;2023-12-28T08:13:26;100267.50;;;6.37;98.95
13869;BME280;7004;48.206;16.402;2023-12-28T08:15:52;100270.00;;;6.40;97.12
13869;BME280;7004;48.206;16.402;2023-12-28T08:18:18;100277.81;;;6.18;97.83
13869;BME280;7004;48.206;16.402;2023-12-28T08:20:45;100275.88;;;6.23;98.60
13869;BME280;7004;48.206;16.402;2023-12-28T08:23:11;100284.66;;;6.46;97.62
13869;BME280;7004;48.206;16.402;2023-12-28T08:25:37;100279.25;;;5.52;100.00
13869;BME280;7004;48.206;16.402;2023-12-28T08:28:03;100285.59;;;5.96;99.65
13869;BME280;7004;48.206;16.402;2023-12-28T08:30:29;100282.22;;;6.41;97.71
13869;BME280;7004;48.206;16.402;2023-12-28T08:32:55;100281.75;;;6.30;97.66
13869;BME280;7004;48.206;16.402;2023-12-28T08:35:21;100282.69;;;6.52;95.21
13869;BME280;7004;48.206;16.402;2023-12-28T08:37:47;100273.97;;;6.74;94.36
13869;BME280;7004;48.206;16.402;2023-12-28T08:40:14;100286.59;;;6.41;95.47
13869;BME280;7004;48.206;16.402;2023-12-28T08:42:40;100294.41;;;6.44;95.25
13869;BME280;7004;48.206;16.402;2023-12-28T08:45:06;100294.09;;;6.51;93.70
13869;BME280;7004;48.206;16.402;2023-12-28T08:47:32;100297.34;;;6.34;96.40
13869;BME280;7004;48.206;16.402;2023-12-28T08:49:58;100293.44;;;6.68;93.14
13869;BME280;7004;48.206;16.402;2023-12-28T08:52:26;100307.53;;;6.44;94.38
13869;BME280;7004;48.206;16.402;2023-12-28T08:54:52;100310.19;;;6.66;93.99
13869;BME280;7004;48.206;16.402;2023-12-28T08:57:19;100307.47;;;5.97;96.97
13869;BME280;7004;48.206;16.402;2023-12-28T08:59:48;100306.41;;;6.73;93.61
13869;BME280;7004;48.206;16.402;2023-12-28T09:02:14;100318.59;;;6.28;94.15
13869;BME280;7004;48.206;16.402;2023-12-28T09:04:40;100315.69;;;6.36;95.73
13869;BME280;7004;48.206;16.402;2023-12-28T09:07:06;100311.72;;;5.99;95.87
13869;BME280;7004;48.206;16.402;2023-12-28T09:09:33;100313.66;;;5.67;97.17
13869;BME280;7004;48.206;16.402;2023-12-28T09:11:59;100325.28;;;5.06;99.54
13869;BME280;7004;48.206;16.402;2023-12-28T09:14:25;100317.66;;;5.79;98.34
13869;BME280;7004;48.206;16.402;2023-12-28T09:16:51;100317.34;;;6.13;96.62
13869;BME280;7004;48.206;16.402;2023-12-28T09:19:18;100311.78;;;6.23;94.60
13869;BME280;7004;48.206;16.402;2023-12-28T09:21:44;100309.88;;;6.03;95.11
13869;BME280;7004;48.206;16.402;2023-12-28T09:24:10;100315.97;;;6.03;94.62
13869;BME280;7004;48.206;16.402;2023-12-28T09:26:36;100308.97;;;6.51;92.01
13869;BME280;7004;48.206;16.402;2023-12-28T09:29:03;100319.16;;;6.60;91.44
13869;BME280;7004;48.206;16.402;2023-12-28T09:31:28;100319.31;;;6.32;94.19
13869;BME280;7004;48.206;16.402;2023-12-28T09:33:55;100307.25;;;6.51;92.26
13869;BME280;7004;48.206;16.402;2023-12-28T09:36:21;100314.47;;;6.45;92.10
13869;BME280;7004;48.206;16.402;2023-12-28T09:38:47;100311.25;;;6.13;94.76
13869;BME280;7004;48.206;16.402;2023-12-28T09:41:15;100298.56;;;6.49;92.53
13869;BME280;7004;48.206;16.402;2023-12-28T09:44:03;100302.66;;;6.33;92.80
13869;BME280;7004;48.206;16.402;2023-12-28T09:46:32;100305.94;;;6.15;93.99
13869;BME280;7004;48.206;16.402;2023-12-28T09:48:58;100302.25;;;6.20;93.55
13869;BME280;7004;48.206;16.402;2023-12-28T09:51:28;100300.38;;;5.99;93.11
13869;BME280;7004;48.206;16.402;2023-12-28T09:53:55;100289.56;;;6.08;94.75
13869;BME280;7004;48.206;16.402;2023-12-28T09:56:30;100301.91;;;6.29;93.76
13869;BME280;7004;48.206;16.402;2023-12-28T09:58:57;100288.66;;;6.56;91.78
13869;BME280;7004;48.206;16.402;2023-12-28T10:01:25;100286.69;;;6.39;93.27
13869;BME280;7004;48.206;16.402;2023-12-28T10:03:51;100274.63;;;6.10;93.99
13869;BME280;7004;48.206;16.402;2023-12-28T10:06:17;100276.69;;;6.25;92.48
13869;BME280;7004;48.206;16.402;2023-12-28T10:08:47;100270.72;;;6.67;91.99
13869;BME280;7004;48.206;16.402;2023-12-28T10:11:18;100273.19;;;6.72;91.06
13869;BME280;7004;48.206;16.402;2023-12-28T10:13:44;100267.25;;;6.67;90.74
13869;BME280;7004;48.206;16.402;2023-12-28T10:16:16;100266.84;;;6.77;89.58
13869;BME280;7004;48.206;16.402;2023-12-28T10:18:43;100259.31;;;6.45;91.05
13869;BME280;7004;48.206;16.402;2023-12-28T10:21:09;100267.22;;;5.96;94.08
13869;BME280;7004;48.206;16.402;2023-12-28T10:23:35;100255.78;;;6.22;93.92
13869;BME280;7004;48.206;16.402;2023-12-28T10:26:03;100248.38;;;6.79;91.89
13869;BME280;7004;48.206;16.402;2023-12-28T10:28:35;100254.81;;;6.48;89.99
13869;BME280;7004;48.206;16.402;2023-12-28T10:31:03;100244.81;;;6.34;92.41
13869;BME280;7004;48.206;16.402;2023-12-28T10:33:37;100251.81;;;6.36;91.83
13869;BME280;7004;48.206;16.402;2023-12-28T10:36:08;100237.53;;;6.19;92.03
13869;BME280;7004;48.206;16.402;2023-12-28T10:38:35;100241.47;;;6.76;91.59
13869;BME280;7004;48.206;16.402;2023-12-28T10:41:07;100232.59;;;6.79;90.41
13869;BME280;7004;48.206;16.402;2023-12-28T10:46:26;100225.69;;;6.54;90.15
13869;BME280;7004;48.206;16.402;2023-12-28T10:49:13;100237.31;;;6.25;93.16
13869;BME280;7004;48.206;16.402;2023-12-28T10:51:43;100241.84;;;6.67;91.38
13869;BME280;7004;48.206;16.402;2023-12-28T10:54:41;100240.88;;;5.99;94.32
13869;BME280;7004;48.206;16.402;2023-12-28T10:57:16;100241.88;;;6.44;93.55
13869;BME280;7004;48.206;16.402;2023-12-28T11:00:11;100233.81;;;5.76;95.97
13869;BME280;7004;48.206;16.402;2023-12-28T11:02:45;100237.34;;;5.75;95.98
13869;BME280;7004;48.206;16.402;2023-12-28T11:05:13;100227.69;;;5.76;96.05
13869;BME280;7004;48.206;16.402;2023-12-28T11:07:41;100227.53;;;5.80;95.71
13869;BME280;7004;48.206;16.402;2023-12-28T11:10:11;100223.16;;;6.06;94.11
13869;BME280;7004;48.206;16.402;2023-12-28T11:12:39;100225.88;;;6.03;94.44
13869;BME280;7004;48.206;16.402;2023-12-28T11:15:07;100223.16;;;6.06;92.81
13869;BME280;7004;48.206;16.402;2023-12-28T11:17:37;100212.69;;;6.04;94.55
13869;BME280;7004;48.206;16.402;2023-12-28T11:20:04;100207.06;;;6.15;94.17
13869;BME280;7004;48.206;16.402;2023-12-28T11:22:33;100211.03;;;6.02;95.13
13869;BME280;7004;48.206;16.402;2023-12-28T11:24:59;100219.03;;;5.74;95.58
13869;BME280;7004;48.206;16.402;2023-12-28T11:27:36;100212.66;;;6.06;93.84
13869;BME280;7004;48.206;16.402;2023-12-28T11:30:04;100211.84;;;6.27;93.80
13869;BME280;7004;48.206;16.402;2023-12-28T11:32:36;100212.38;;;6.13;93.07
13869;BME280;7004;48.206;16.402;2023-12-28T11:35:06;100213.47;;;6.75;89.56
13869;BME280;7004;48.206;16.402;2023-12-28T11:37:37;100204.34;;;6.40;90.23
13869;BME280;7004;48.206;16.402;2023-12-28T11:40:12;100193.16;;;6.35;91.15
13869;BME280;7004;48.206;16.402;2023-12-28T11:42:53;100190.25;;;6.43;92.50
13869;BME280;7004;48.206;16.402;2023-12-28T11:45:22;100175.03;;;9.76;91.04
13869;BME280;7004;48.206;16.402;2023-12-28T11:48:00;100172.69;;;7.90;86.74
13869;BME280;7004;48.206;16.402;2023-12-28T11:50:27;100180.25;;;7.37;85.78
13869;BME280;7004;48.206;16.402;2023-12-28T11:52:53;100176.59;;;6.99;87.19
13869;BME280;7004;48.206;16.402;2023-12-28T11:55:23;100161.59;;;10.30;85.51
13869;BME280;7004;48.206;16.402;2023-12-28T11:57:52;100170.25;;;10.16;73.76
13869;BME280;7004;48.206;16.402;2023-12-28T12:00:18;100169.41;;;7.84;79.56
13869;BME280;7004;48.206;16.402;2023-12-28T12:02:46;100154.06;;;9.22;83.32
13869;BME280;7004;48.206;16.402;2023-12-28T12:05:14;100166.03;;;7.62;81.79
13869;BME280;7004;48.206;16.402;2023-12-28T12:07:41;100172.84;;;6.62;87.34
13869;BME280;7004;48.206;16.402;2023-12-28T12:10:07;100176.38;;;6.83;86.46
13869;BME280;7004;48.206;16.402;2023-12-28T12:12:33;100166.84;;;6.37;90.34
13869;BME280;7004;48.206;16.402;2023-12-28T12:15:00;100172.59;;;6.68;89.85
13869;BME280;7004;48.206;16.402;2023-12-28T12:17:26;100173.75;;;6.61;89.08
13869;BME280;7004;48.206;16.402;2023-12-28T12:19:52;100177.25;;;6.84;87.12
13869;BME280;7004;48.206;16.402;2023-12-28T12:22:21;100173.09;;;6.78;87.80
13869;BME280;7004;48.206;16.402;2023-12-28T12:24:49;100172.16;;;6.13;89.93
13869;BME280;7004;48.206;16.402;2023-12-28T12:27:17;100170.47;;;6.34;89.12
13869;BME280;7004;48.206;16.402;2023-12-28T12:29:43;100161.28;;;5.99;90.25
13869;BME280;7004;48.206;16.402;2023-12-28T12:32:10;100165.94;;;6.60;87.84
13869;BME280;7004;48.206;16.402;2023-12-28T12:34:36;100160.69;;;6.38;87.83
13869;BME280;7004;48.206;16.402;2023-12-28T12:37:03;100164.16;;;6.38;89.80
13869;BME280;7004;48.206;16.402;2023-12-28T12:39:30;100157.53;;;6.51;89.28
13869;BME280;7004;48.206;16.402;2023-12-28T12:41:56;100152.38;;;5.56;91.27
13869;BME280;7004;48.206;16.402;2023-12-28T12:44:23;100152.13;;;5.62;91.55
13869;BME280;7004;48.206;16.402;2023-12-28T12:46:57;100157.31;;;5.40;93.58
13869;BME280;7004;48.206;16.402;2023-12-28T12:49:25;100163.00;;;5.26;95.08
13869;BME280;7004;48.206;16.402;2023-12-28T12:51:51;100155.94;;;5.53;94.05
13869;BME280;7004;48.206;16.402;2023-12-28T12:54:17;100148.09;;;6.24;89.44
13869;BME280;7004;48.206;16.402;2023-12-28T12:56:49;100149.13;;;6.86;85.21
13869;BME280;7004;48.206;16.402;2023-12-28T12:59:16;100133.84;;;5.60;91.89
13869;BME280;7004;48.206;16.402;2023-12-28T13:01:46;100152.16;;;5.12;93.09